createdAt,value
2023-04-16T00:00:58.723Z,100
2023-04-16T00:10:58.736Z,100
2023-04-16T00:20:58.730Z,100
2023-04-16T00:30:58.753Z,100
2023-04-16T00:40:58.764Z,100
2023-04-16T00:50:58.778Z,100
2023-04-16T01:00:58.718Z,100
2023-04-16T01:10:58.741Z,100
2023-04-16T01:20:58.761Z,100
2023-04-16T01:30:58.780Z,100
2023-04-16T01:40:58.794Z,100
2023-04-16T01:50:58.783Z,100
2023-04-16T02:00:58.770Z,100
2023-04-16T02:10:58.793Z,100
2023-04-16T02:20:58.774Z,100
2023-04-16T02:30:58.770Z,100
2023-04-16T02:40:58.784Z,100
2023-04-16T02:50:58.810Z,100
2023-04-16T03:00:59.064Z,100
2023-04-16T03:10:58.822Z,100
2023-04-16T03:20:58.804Z,100
2023-04-16T03:30:58.797Z,100
2023-04-16T03:40:59.017Z,100
2023-04-16T03:50:58.904Z,100
2023-04-16T04:00:58.826Z,100
2023-04-16T04:10:58.803Z,100
2023-04-16T04:20:58.905Z,100
2023-04-16T04:30:58.804Z,100
2023-04-16T04:40:58.824Z,100
2023-04-16T04:50:58.835Z,100
2023-04-16T05:00:58.892Z,100
2023-04-16T05:10:58.857Z,100
2023-04-16T05:20:58.902Z,100
2023-04-16T05:30:58.993Z,100
2023-04-16T05:40:58.932Z,100
2023-04-16T05:50:58.857Z,98
2023-04-16T06:00:58.949Z,98
2023-04-16T06:10:58.900Z,98
2023-04-16T06:20:58.885Z,99
2023-04-16T06:30:58.850Z,99
2023-04-16T06:40:58.927Z,100
2023-04-16T06:50:58.849Z,100
2023-04-16T07:00:58.880Z,100
2023-04-16T07:10:58.834Z,100
2023-04-16T07:20:58.836Z,100
2023-04-16T07:30:58.888Z,100
2023-04-16T07:40:58.902Z,100
2023-04-16T07:50:58.898Z,100
2023-04-16T08:00:58.854Z,100
2023-04-16T08:10:58.878Z,100
2023-04-16T08:20:58.827Z,100
2023-04-16T08:30:58.844Z,99
2023-04-16T08:40:58.923Z,93
2023-04-16T08:50:58.826Z,97
2023-04-16T09:00:58.904Z,90
2023-04-16T09:10:58.904Z,84
2023-04-16T09:20:58.897Z,83
2023-04-16T09:30:58.793Z,85
2023-04-16T09:40:58.814Z,73
2023-04-16T09:50:58.780Z,74
2023-04-16T10:00:58.916Z,63
2023-04-16T10:10:58.775Z,57
2023-04-16T10:20:58.767Z,57
2023-04-16T10:30:58.786Z,55
2023-04-16T10:40:58.737Z,58
2023-04-16T10:50:58.715Z,57
2023-04-16T11:00:58.754Z,54
2023-04-16T11:10:58.729Z,58
2023-04-16T11:20:58.724Z,56
2023-04-16T11:30:58.810Z,56
2023-04-16T11:40:58.723Z,61
2023-04-16T11:50:58.719Z,62
2023-04-16T12:00:58.696Z,62
2023-04-16T12:10:58.674Z,62
2023-04-16T12:20:58.723Z,59
2023-04-16T12:40:58.735Z,59
2023-04-16T12:50:58.697Z,60
2023-04-16T13:00:58.628Z,57
2023-04-16T13:10:58.654Z,58
2023-04-16T13:20:58.605Z,58
2023-04-16T13:30:58.709Z,58
2023-04-16T13:40:58.625Z,54
2023-04-16T13:50:58.655Z,57
2023-04-16T14:00:58.730Z,56
2023-04-16T14:10:58.593Z,58
2023-04-16T14:20:58.580Z,59
2023-04-16T14:30:58.547Z,63
2023-04-16T14:40:58.635Z,62
2023-04-16T14:50:58.643Z,64
2023-04-16T15:00:58.622Z,65
2023-04-16T15:10:58.559Z,80
2023-04-16T15:20:58.579Z,95
2023-04-16T15:30:58.554Z,100
2023-04-16T15:40:58.520Z,100
2023-04-16T15:50:58.517Z,100
2023-04-16T16:00:58.517Z,100
2023-04-16T16:10:58.571Z,100
2023-04-16T16:20:58.612Z,100
2023-04-16T16:30:58.556Z,100
2023-04-16T16:40:58.539Z,100
2023-04-16T16:50:58.526Z,96
2023-04-16T17:00:58.527Z,95
2023-04-16T17:10:58.484Z,100
2023-04-16T17:20:58.460Z,100
2023-04-16T17:30:58.471Z,100
2023-04-16T17:40:58.538Z,100
2023-04-16T17:50:58.449Z,100
2023-04-16T18:00:58.467Z,100
2023-04-16T18:10:58.459Z,100
2023-04-16T18:20:58.538Z,100
2023-04-16T18:30:59.232Z,100
2023-04-16T18:40:58.491Z,100
2023-04-16T18:50:58.471Z,100
2023-04-16T19:00:58.463Z,100
2023-04-16T19:10:58.430Z,100
2023-04-16T19:20:58.453Z,100
2023-04-16T19:30:58.468Z,100
2023-04-16T19:40:58.433Z,100
2023-04-16T19:50:58.449Z,100
2023-04-16T20:00:58.502Z,100
2023-04-16T20:10:58.542Z,100
2023-04-16T20:20:58.408Z,100
2023-04-16T20:30:58.704Z,100
2023-04-16T20:40:58.488Z,100
2023-04-16T20:50:58.484Z,100
2023-04-16T21:00:58.571Z,100
2023-04-16T21:10:58.441Z,100
2023-04-16T21:20:58.421Z,100
2023-04-16T21:30:58.452Z,100
2023-04-16T21:40:58.393Z,100
2023-04-16T21:50:58.395Z,100
2023-04-16T22:00:58.402Z,100
2023-04-16T22:10:58.408Z,100
2023-04-16T22:20:58.498Z,100
2023-04-16T22:30:58.416Z,100
2023-04-16T22:40:58.439Z,100
2023-04-16T22:50:58.444Z,100
2023-04-16T23:00:58.410Z,100
2023-04-16T23:10:58.399Z,100
2023-04-16T23:20:58.384Z,100
2023-04-16T23:30:58.405Z,100
2023-04-16T23:40:58.425Z,100
2023-04-16T23:50:58.422Z,100
